SondeTracker

Meteorological Radiosondes Database

Operations

Sounding was ended - last measurement: 2022-12-07 01:20:32z

MAP
About Radiosonde

Number: D22043171 ([BC]22043171)

Launch Site: Greensboro [NC] (US)

Type: DFM

AUX: NO

Frequency: MHz

Max Speed: 237 km/h at 33618 m

Average Speed: 91.12 km/h

Max Altitude: 33722 m

Average Ascent Speed: 5.52 m/s

Average Descent Speed: 14.77 m/s

Status: UNKNOWN

Status Changes
Launch Site Type AUX Frequency Status Finder Landing Point Description Changes made by
APRS Statistics

Received Frames: 510

First Frame [UTC]: 2022-12-06 23:05:54z

Last Frame [UTC]: 2022-12-07 01:20:32z

Receivers: W4DEX-14

Flight Time: 02:14:38 h

Distance From First Measurement: 193.23 km

Nearest City: Wilson [NC] (US) [13.10 km]

Nearest Hunter: [0.00 km]

Ground Altitude: 32 m

Distance from QTH: 0.00 km

APRS Data
Receiver Number Date/Time [UTC] φ λ Course [°] Speed [km/h] Altitude [m] Description
W4DEX-14D220431712022-12-07 01:20:3235.8123-77.8231103282883Clb=-4.4m/s Type=DFM17 ser=[BC]22043171 Details on http://radiosondy.info
W4DEX-14D220431712022-12-07 01:20:1635.8126-77.8243104302976Clb=-5.0m/s Type=DFM17 ser=[BC]22043171 Details on http://radiosondy.info
W4DEX-14D220431712022-12-07 01:20:0035.8129-77.8257108303030Clb=-5.0m/s Type=DFM17 ser=[BC]22043171 Details on http://radiosondy.info
W4DEX-14D220431712022-12-07 01:19:4435.8132-77.8271107313111Clb=-5.0m/s Type=DFM17 ser=[BC]22043171 Details on http://radiosondy.info
W4DEX-14D220431712022-12-07 01:19:2735.8136-77.8286104313193Clb=-5.2m/s Type=DFM17 ser=[BC]22043171 Details on http://radiosondy.info
W4DEX-14D220431712022-12-07 01:19:1135.8139-77.8301102313279Clb=-5.3m/s Type=DFM17 ser=[BC]22043171 Details on http://radiosondy.info
W4DEX-14D220431712022-12-07 01:18:5635.8141-77.8316102313361Clb=-5.7m/s Type=DFM17 ser=[BC]22043171 Details on http://radiosondy.info
W4DEX-14D220431712022-12-07 01:18:4135.8143-77.833104303469Clb=-12.4m/s Type=DFM17 ser=[BC]22043171 Details on http://radiosondy.info
W4DEX-14D220431712022-12-07 01:18:2635.8144-77.834389303629Clb=-10.5m/s Type=DFM17 ser=[BC]22043171 Details on http://radiosondy.info
W4DEX-14D220431712022-12-07 01:18:1135.8143-77.835781303784Clb=-10.3m/s Type=DFM17 ser=[BC]22043171 Details on http://radiosondy.info
W4DEX-14D220431712022-12-07 01:17:5635.8143-77.837183303936Clb=-10.0m/s Type=DFM17 ser=[BC]22043171 Details on http://radiosondy.info
W4DEX-14D220431712022-12-07 01:17:4135.8143-77.838499314086Clb=-10.0m/s Type=DFM17 ser=[BC]22043171 Details on http://radiosondy.info
W4DEX-14D220431712022-12-07 01:17:2635.8144-77.8398103304239Clb=-10.3m/s Type=DFM17 ser=[BC]22043171 Details on http://radiosondy.info
W4DEX-14D220431712022-12-07 01:17:1135.8146-77.841291304391Clb=-10.1m/s Type=DFM17 ser=[BC]22043171 Details on http://radiosondy.info
W4DEX-14D220431712022-12-07 01:16:5635.8146-77.842679304544Clb=-10.2m/s Type=DFM17 ser=[BC]22043171 Details on http://radiosondy.info
W4DEX-14D220431712022-12-07 01:16:4135.8145-77.843996284702Clb=-10.3m/s Type=DFM17 ser=[BC]22043171 Details on http://radiosondy.info
W4DEX-14D220431712022-12-07 01:16:2635.8147-77.8452107284860Clb=-10.7m/s Type=DFM17 ser=[BC]22043171 Details on http://radiosondy.info
W4DEX-14D220431712022-12-07 01:16:1135.8148-77.846597415017Clb=-10.7m/s Type=DFM17 ser=[BC]22043171 Details on http://radiosondy.info
W4DEX-14D220431712022-12-07 01:15:5635.8149-77.848489505179Clb=-10.7m/s Type=DFM17 ser=[BC]22043171 Details on http://radiosondy.info
W4DEX-14D220431712022-12-07 01:15:4435.8149-77.850791575344Clb=-11.1m/s Type=DFM17 ser=[BC]22043171 Details on http://radiosondy.info
W4DEX-14D220431712022-12-07 01:15:3135.815-77.853399615506Clb=-10.1m/s Type=DFM17 ser=[BC]22043171 Details on http://radiosondy.info
W4DEX-14D220431712022-12-07 01:15:2035.8153-77.856198655665Clb=-10.0m/s Type=DFM17 ser=[BC]22043171 Details on http://radiosondy.info
W4DEX-14D220431712022-12-07 01:15:0735.8158-77.859199695808Clb=-10.0m/s Type=DFM17 ser=[BC]22043171 Details on http://radiosondy.info
W4DEX-14D220431712022-12-07 01:14:5335.8162-77.8622100745956Clb=-9.2m/s Type=DFM17 ser=[BC]22043171 Details on http://radiosondy.info
W4DEX-14D220431712022-12-07 01:14:4235.8165-77.865696746096Clb=-9.0m/s Type=DFM17 ser=[BC]22043171 Details on http://radiosondy.info
W4DEX-14D220431712022-12-07 01:14:3035.8169-77.869101676231Clb=-9.4m/s Type=DFM17 ser=[BC]22043171 Details on http://radiosondy.info
W4DEX-14D220431712022-12-07 01:14:1635.8174-77.872104576371Clb=-9.4m/s Type=DFM17 ser=[BC]22043171 Details on http://radiosondy.info
W4DEX-14D220431712022-12-07 01:14:0335.8181-77.8745115566513Clb=-9.4m/s Type=DFM17 ser=[BC]22043171 Details on http://radiosondy.info
W4DEX-14D220431712022-12-07 01:13:4935.8189-77.8768115576665Clb=-10.0m/s Type=DFM17 ser=[BC]22043171 Details on http://radiosondy.info
W4DEX-14D220431712022-12-07 01:13:3635.8199-77.8792120616788Clb=-9.4m/s Type=DFM17 ser=[BC]22043171 Details on http://radiosondy.info
W4DEX-14D220431712022-12-07 01:13:2135.821-77.8817120656911Clb=-8.2m/s Type=DFM17 ser=[BC]22043171 Details on http://radiosondy.info
W4DEX-14D220431712022-12-07 01:13:0835.8222-77.8843118697044Clb=-8.1m/s Type=DFM17 ser=[BC]22043171 Details on http://radiosondy.info
W4DEX-14D220431712022-12-07 01:12:5335.8233-77.8871116707168Clb=-8.4m/s Type=DFM17 ser=[BC]22043171 Details on http://radiosondy.info
W4DEX-14D220431712022-12-07 01:12:3935.8245-77.89118707297Clb=-8.5m/s Type=DFM17 ser=[BC]22043171 Details on http://radiosondy.info
W4DEX-14D220431712022-12-07 01:12:2435.8256-77.8928115657425Clb=-8.2m/s Type=DFM17 ser=[BC]22043171 Details on http://radiosondy.info
W4DEX-14D220431712022-12-07 01:12:0935.8265-77.8957107577554Clb=-8.6m/s Type=DFM17 ser=[BC]22043171 Details on http://radiosondy.info
W4DEX-14D220431712022-12-07 01:11:5435.827-77.8982101547687Clb=-9.2m/s Type=DFM17 ser=[BC]22043171 Details on http://radiosondy.info
W4DEX-14D220431712022-12-07 01:11:3935.8274-77.9006103577825Clb=-9.2m/s Type=DFM17 ser=[BC]22043171 Details on http://radiosondy.info
W4DEX-14D220431712022-12-07 01:11:2435.828-77.9032107637964Clb=-9.2m/s Type=DFM17 ser=[BC]22043171 Details on http://radiosondy.info
W4DEX-14D220431712022-12-07 01:11:1035.8287-77.906109698100Clb=-8.8m/s Type=DFM17 ser=[BC]22043171 Details on http://radiosondy.info
W4DEX-14D220431712022-12-07 01:10:5535.8294-77.909107708237Clb=-8.9m/s Type=DFM17 ser=[BC]22043171 Details on http://radiosondy.info
W4DEX-14D220431712022-12-07 01:10:4035.8302-77.9122106678373Clb=-9.2m/s Type=DFM17 ser=[BC]22043171 Details on http://radiosondy.info
W4DEX-14D220431712022-12-07 01:10:3035.831-77.9151110708510Clb=-9.0m/s Type=DFM17 ser=[BC]22043171 Details on http://radiosondy.info
W4DEX-14D220431712022-12-07 01:10:1035.8319-77.9182115728646Clb=-9.0m/s Type=DFM17 ser=[BC]22043171 Details on http://radiosondy.info
W4DEX-14D220431712022-12-07 01:09:5435.8331-77.9212117788783Clb=-9.1m/s Type=DFM17 ser=[BC]22043171 Details on http://radiosondy.info
W4DEX-14D220431712022-12-07 01:09:3935.8344-77.9244117838919Clb=-8.9m/s Type=DFM17 ser=[BC]22043171 Details on http://radiosondy.info
W4DEX-14D220431712022-12-07 01:09:2335.8358-77.9278119879055Clb=-9.2m/s Type=DFM17 ser=[BC]22043171 Details on http://radiosondy.info
W4DEX-14D220431712022-12-07 01:09:0635.8374-77.9314120949190Clb=-9.0m/s Type=DFM17 ser=[BC]22043171 Details on http://radiosondy.info
W4DEX-14D220431712022-12-07 01:08:5035.839-77.9353117989325Clb=-9.0m/s Type=DFM17 ser=[BC]22043171 Details on http://radiosondy.info
W4DEX-14D220431712022-12-07 01:08:3535.8406-77.93941151049461Clb=-9.3m/s Type=DFM17 ser=[BC]22043171 Details on http://radiosondy.info
W4DEX-14D220431712022-12-07 01:08:1935.8423-77.94381161119598Clb=-9.1m/s Type=DFM17 ser=[BC]22043171 Details on http://radiosondy.info
W4DEX-14D220431712022-12-07 01:08:0535.8442-77.94831171099730Clb=-9.0m/s Type=DFM17 ser=[BC]22043171 Details on http://radiosondy.info
W4DEX-14D220431712022-12-07 01:07:4835.846-77.95281161079869Clb=-9.3m/s Type=DFM17 ser=[BC]22043171 Details on http://radiosondy.info
W4DEX-14D220431712022-12-07 01:07:3435.8477-77.957311711110003Clb=-8.8m/s Type=DFM17 ser=[BC]22043171 Details on http://radiosondy.info
W4DEX-14D220431712022-12-07 01:07:1635.8496-77.961911711110138Clb=-8.9m/s Type=DFM17 ser=[BC]22043171 Details on http://radiosondy.info
W4DEX-14D220431712022-12-07 01:06:5835.8515-77.966511711110272Clb=-8.8m/s Type=DFM17 ser=[BC]22043171 Details on http://radiosondy.info
W4DEX-14D220431712022-12-07 01:06:4235.8534-77.97111911110410Clb=-9.2m/s Type=DFM17 ser=[BC]22043171 Details on http://radiosondy.info
W4DEX-14D220431712022-12-07 01:06:2535.8554-77.975511811710547Clb=-9.1m/s Type=DFM17 ser=[BC]22043171 Details on http://radiosondy.info
W4DEX-14D220431712022-12-07 01:06:0835.8575-77.980212012010682Clb=-9.1m/s Type=DFM17 ser=[BC]22043171 Details on http://radiosondy.info
W4DEX-14D220431712022-12-07 01:05:5235.8596-77.985111912610816Clb=-8.7m/s Type=DFM17 ser=[BC]22043171 Details on http://radiosondy.info
W4DEX-14D220431712022-12-07 01:05:3435.8619-77.990212013510946Clb=-8.8m/s Type=DFM17 ser=[BC]22043171 Details on http://radiosondy.info
W4DEX-14D220431712022-12-07 01:05:1935.8643-77.995711913711080Clb=-8.9m/s Type=DFM17 ser=[BC]22043171 Details on http://radiosondy.info
W4DEX-14D220431712022-12-07 01:05:0135.8668-78.001211813711217Clb=-9.2m/s Type=DFM17 ser=[BC]22043171 Details on http://radiosondy.info
W4DEX-14D220431712022-12-07 01:04:4635.8691-78.006911814111354Clb=-9.3m/s Type=DFM17 ser=[BC]22043171 Details on http://radiosondy.info
W4DEX-14D220431712022-12-07 01:04:2835.8716-78.012611814411493Clb=-9.4m/s Type=DFM17 ser=[BC]22043171 Details on http://radiosondy.info
W4DEX-14D220431712022-12-07 01:04:1235.8741-78.018511714411634Clb=-9.4m/s Type=DFM17 ser=[BC]22043171 Details on http://radiosondy.info
W4DEX-14D220431712022-12-07 01:03:5635.8765-78.024411614411779Clb=-9.4m/s Type=DFM17 ser=[BC]22043171 Details on http://radiosondy.info
W4DEX-14D220431712022-12-07 01:03:4135.8789-78.030411814411924Clb=-9.5m/s Type=DFM17 ser=[BC]22043171 Details on http://radiosondy.info
W4DEX-14D220431712022-12-07 01:03:2635.8814-78.036311814812076Clb=-10.5m/s Type=DFM17 ser=[BC]22043171 Details on http://radiosondy.info
W4DEX-14D220431712022-12-07 01:03:1135.8841-78.042312014812232Clb=-10.5m/s Type=DFM17 ser=[BC]22043171 Details on http://radiosondy.info
W4DEX-14D220431712022-12-07 01:02:5635.8869-78.048212215212386Clb=-10.1m/s Type=DFM17 ser=[BC]22043171 Details on http://radiosondy.info
W4DEX-14D220431712022-12-07 01:02:4135.8899-78.054112215012544Clb=-10.3m/s Type=DFM17 ser=[BC]22043171 Details on http://radiosondy.info
W4DEX-14D220431712022-12-07 01:02:2635.8928-78.0612315012701Clb=-10.5m/s Type=DFM17 ser=[BC]22043171 Details on http://radiosondy.info
W4DEX-14D220431712022-12-07 01:02:1135.8958-78.065912115212861Clb=-10.8m/s Type=DFM17 ser=[BC]22043171 Details on http://radiosondy.info
W4DEX-14D220431712022-12-07 01:01:5635.8985-78.072111615413021Clb=-10.6m/s Type=DFM17 ser=[BC]22043171 Details on http://radiosondy.info
W4DEX-14D220431712022-12-07 01:01:4135.9006-78.078711016313184Clb=-11.6m/s Type=DFM17 ser=[BC]22043171 Details on http://radiosondy.info
W4DEX-14D220431712022-12-07 01:01:2735.9027-78.085711217213351Clb=-11.5m/s Type=DFM17 ser=[BC]22043171 Details on http://radiosondy.info
W4DEX-14D220431712022-12-07 01:01:1135.9053-78.09311716513519Clb=-11.5m/s Type=DFM17 ser=[BC]22043171 Details on http://radiosondy.info
W4DEX-14D220431712022-12-07 01:00:5635.9082-78.099811815013691Clb=-11.6m/s Type=DFM17 ser=[BC]22043171 Details on http://radiosondy.info
W4DEX-14D220431712022-12-07 01:00:5435.9106-78.105911314813865Clb=-11.8m/s Type=DFM17 ser=[BC]22043171 Details on http://radiosondy.info
W4DEX-14D220431712022-12-07 01:00:5335.9127-78.112311513914042Clb=-11.7m/s Type=DFM17 ser=[BC]22043171 Details on http://radiosondy.info
W4DEX-14D220431712022-12-07 01:00:5235.9172-78.12311711714386Clb=-11.1m/s Type=DFM17 ser=[BC]22043171 Details on http://radiosondy.info
W4DEX-14D220431712022-12-07 01:00:5135.919-78.127911310914553Clb=-11.0m/s Type=DFM17 ser=[BC]22043171 Details on http://radiosondy.info
W4DEX-14D220431712022-12-07 01:00:5035.9204-78.132610710914719Clb=-11.0m/s Type=DFM17 ser=[BC]22043171 Details on http://radiosondy.info
W4DEX-14D220431712022-12-07 01:00:4935.9229-78.141911310715054Clb=-11.3m/s Type=DFM17 ser=[BC]22043171 Details on http://radiosondy.info
W4DEX-14D220431712022-12-07 01:00:4835.9245-78.14651159815226Clb=-11.5m/s Type=DFM17 ser=[BC]22043171 Details on http://radiosondy.info
W4DEX-14D220431712022-12-07 01:00:4735.9259-78.15071109115400Clb=-11.5m/s Type=DFM17 ser=[BC]22043171 Details on http://radiosondy.info
W4DEX-14D220431712022-12-07 01:00:4635.9267-78.15471028915575Clb=-11.7m/s Type=DFM17 ser=[BC]22043171 Details on http://radiosondy.info
W4DEX-14D220431712022-12-07 01:00:4035.9273-78.1588979415750Clb=-11.8m/s Type=DFM17 ser=[BC]22043171 Details on http://radiosondy.info
W4DEX-14D220431712022-12-07 01:00:3635.9274-78.16329110915928Clb=-11.8m/s Type=DFM17 ser=[BC]22043171 Details on http://radiosondy.info
W4DEX-14D220431712022-12-07 01:00:3335.9277-78.16829911116109Clb=-12.2m/s Type=DFM17 ser=[BC]22043171 Details on http://radiosondy.info
W4DEX-14D220431712022-12-07 01:00:2935.9287-78.173211010716295Clb=-12.6m/s Type=DFM17 ser=[BC]22043171 Details on http://radiosondy.info
W4DEX-14D220431712022-12-07 01:00:2235.9302-78.177711510016487Clb=-12.8m/s Type=DFM17 ser=[BC]22043171 Details on http://radiosondy.info
W4DEX-14D220431712022-12-07 01:00:2135.9316-78.18210710616685Clb=-13.3m/s Type=DFM17 ser=[BC]22043171 Details on http://radiosondy.info
W4DEX-14D220431712022-12-07 01:00:2035.9337-78.191910910717096Clb=-13.9m/s Type=DFM17 ser=[BC]22043171 Details on http://radiosondy.info
W4DEX-14D220431712022-12-07 01:00:1935.9351-78.196511110417305Clb=-13.9m/s Type=DFM17 ser=[BC]22043171 Details on http://radiosondy.info
W4DEX-14D220431712022-12-07 01:00:1835.9364-78.20091089617517Clb=-14.1m/s Type=DFM17 ser=[BC]22043171 Details on http://radiosondy.info
W4DEX-14D220431712022-12-07 01:00:1335.9376-78.20511118717727Clb=-14.0m/s Type=DFM17 ser=[BC]22043171 Details on http://radiosondy.info
W4DEX-14D220431712022-12-07 01:00:0135.9387-78.20881157617938Clb=-14.1m/s Type=DFM17 ser=[BC]22043171 Details on http://radiosondy.info
W4DEX-14D220431712022-12-07 00:59:4235.94-78.21191235018152Clb=-14.4m/s Type=DFM17 ser=[BC]22043171 Details on http://radiosondy.info
W4DEX-14D220431712022-12-07 00:59:2435.9408-78.21391004618370Clb=-14.2m/s Type=DFM17 ser=[BC]22043171 Details on http://radiosondy.info
W4DEX-14D220431712022-12-07 00:59:0335.9408-78.2161764618589Clb=-15.2m/s Type=DFM17 ser=[BC]22043171 Details on http://radiosondy.info
W4DEX-14D220431712022-12-07 00:58:4235.9405-78.2181895418818Clb=-15.4m/s Type=DFM17 ser=[BC]22043171 Details on http://radiosondy.info
W4DEX-14D220431712022-12-07 00:58:2135.9407-78.22061092619052Clb=-15.6m/s Type=DFM17 ser=[BC]22043171 Details on http://radiosondy.info
W4DEX-14D220431712022-12-07 00:58:0135.941-78.2217951119291Clb=-15.9m/s Type=DFM17 ser=[BC]22043171 Details on http://radiosondy.info
W4DEX-14D220431712022-12-07 00:57:4235.941-78.22221023519554Clb=-16.4m/s Type=DFM17 ser=[BC]22043171 Details on http://radiosondy.info
W4DEX-14D220431712022-12-07 00:57:2135.941-78.2238932819788Clb=-16.9m/s Type=DFM17 ser=[BC]22043171 Details on http://radiosondy.info
W4DEX-14D220431712022-12-07 00:57:0135.9409-78.225692820047Clb=-17.6m/s Type=DFM17 ser=[BC]22043171 Details on http://radiosondy.info
W4DEX-14D220431712022-12-07 00:56:4235.9408-78.2263932620313Clb=-17.9m/s Type=DFM17 ser=[BC]22043171 Details on http://radiosondy.info
W4DEX-14D220431712022-12-07 00:56:2135.9409-78.2275623120588Clb=-18.6m/s Type=DFM17 ser=[BC]22043171 Details on http://radiosondy.info
W4DEX-14D220431712022-12-07 00:56:0135.9403-78.2288732820872Clb=-19.1m/s Type=DFM17 ser=[BC]22043171 Details on http://radiosondy.info
W4DEX-14D220431712022-12-07 00:55:4035.9401-78.23692821164Clb=-20.0m/s Type=DFM17 ser=[BC]22043171 Details on http://radiosondy.info
W4DEX-14D220431712022-12-07 00:55:2035.9398-78.2312892021463Clb=-20.4m/s Type=DFM17 ser=[BC]22043171 Details on http://radiosondy.info
W4DEX-14D220431712022-12-07 00:55:0035.9401-78.23211162021769Clb=-20.8m/s Type=DFM17 ser=[BC]22043171 Details on http://radiosondy.info
W4DEX-14D220431712022-12-07 00:54:4135.9402-78.233693922077Clb=-20.4m/s Type=DFM17 ser=[BC]22043171 Details on http://radiosondy.info
W4DEX-14D220431712022-12-07 00:54:2035.9397-78.2347725022385Clb=-21.0m/s Type=DFM17 ser=[BC]22043171 Details on http://radiosondy.info
W4DEX-14D220431712022-12-07 00:53:5935.9395-78.2371073722699Clb=-21.0m/s Type=DFM17 ser=[BC]22043171 Details on http://radiosondy.info
W4DEX-14D220431712022-12-07 00:53:3735.94-78.23861113323020Clb=-21.5m/s Type=DFM17 ser=[BC]22043171 Details on http://radiosondy.info
W4DEX-14D220431712022-12-07 00:53:1735.9401-78.2401744423347Clb=-22.1m/s Type=DFM17 ser=[BC]22043171 Details on http://radiosondy.info
W4DEX-14D220431712022-12-07 00:52:5635.9396-78.242875723683Clb=-22.4m/s Type=DFM17 ser=[BC]22043171 Details on http://radiosondy.info
W4DEX-14D220431712022-12-07 00:52:3435.9393-78.2446905224028Clb=-23.6m/s Type=DFM17 ser=[BC]22043171 Details on http://radiosondy.info
W4DEX-14D220431712022-12-07 00:52:0935.9397-78.24691154124389Clb=-24.4m/s Type=DFM17 ser=[BC]22043171 Details on http://radiosondy.info
W4DEX-14D220431712022-12-07 00:51:4635.94-78.2487925024758Clb=-24.3m/s Type=DFM17 ser=[BC]22043171 Details on http://radiosondy.info
W4DEX-14D220431712022-12-07 00:51:2435.9397-78.2509665425138Clb=-25.9m/s Type=DFM17 ser=[BC]22043171 Details on http://radiosondy.info
W4DEX-14D220431712022-12-07 00:51:0235.9389-78.2532815925533Clb=-27.3m/s Type=DFM17 ser=[BC]22043171 Details on http://radiosondy.info
W4DEX-14D220431712022-12-07 00:50:3735.9381-78.2557626525949Clb=-27.8m/s Type=DFM17 ser=[BC]22043171 Details on http://radiosondy.info
W4DEX-14D220431712022-12-07 00:50:1735.9367-78.2582707826385Clb=-29.4m/s Type=DFM17 ser=[BC]22043171 Details on http://radiosondy.info
W4DEX-14D220431712022-12-07 00:49:5535.9358-78.2616838526836Clb=-30.6m/s Type=DFM17 ser=[BC]22043171 Details on http://radiosondy.info
W4DEX-14D220431712022-12-07 00:49:3335.9354-78.2655759327297Clb=-31.1m/s Type=DFM17 ser=[BC]22043171 Details on http://radiosondy.info
W4DEX-14D220431712022-12-07 00:49:0935.9346-78.26978110427773Clb=-32.4m/s Type=DFM17 ser=[BC]22043171 Details on http://radiosondy.info
W4DEX-14D220431712022-12-07 00:48:4835.9341-78.27457910428278Clb=-34.8m/s Type=DFM17 ser=[BC]22043171 Details on http://radiosondy.info
W4DEX-14D220431712022-12-07 00:48:2435.9337-78.27928310728800Clb=-35.8m/s Type=DFM17 ser=[BC]22043171 Details on http://radiosondy.info
W4DEX-14D220431712022-12-07 00:48:0435.9337-78.28418512229344Clb=-36.9m/s Type=DFM17 ser=[BC]22043171 Details on http://radiosondy.info
W4DEX-14D220431712022-12-07 00:47:4035.9332-78.28978713529907Clb=-38.7m/s Type=DFM17 ser=[BC]22043171 Details on http://radiosondy.info
W4DEX-14D220431712022-12-07 00:47:1735.9323-78.29588116530490Clb=-39.2m/s Type=DFM17 ser=[BC]22043171 Details on http://radiosondy.info
W4DEX-14D220431712022-12-07 00:46:5235.9318-78.30348815631110Clb=-42.9m/s Type=DFM17 ser=[BC]22043171 Details on http://radiosondy.info
W4DEX-14D220431712022-12-07 00:46:3035.9315-78.31059018031970Clb=-69.4m/s Type=DFM17 ser=[BC]22043171 Details on http://radiosondy.info
W4DEX-14D220431712022-12-07 00:46:0635.9314-78.31888821932980Clb=-64.6m/s Type=DFM17 ser=[BC]22043171 Details on http://radiosondy.info
W4DEX-14D220431712022-12-07 00:45:4435.9309-78.32897323533722Clb=-0.9m/s Type=DFM17 ser=[BC]22043171 Details on http://radiosondy.info
W4DEX-14D220431712022-12-07 00:45:2035.9308-78.33959423733618Clb=7.9m/s Type=DFM17 ser=[BC]22043171 Details on http://radiosondy.info
W4DEX-14D220431712022-12-07 00:44:5835.9306-78.35048422233513Clb=5.9m/s Type=DFM17 ser=[BC]22043171 Details on http://radiosondy.info
W4DEX-14D220431712022-12-07 00:44:3735.9305-78.36059321333407Clb=4.6m/s Type=DFM17 ser=[BC]22043171 Details on http://radiosondy.info
W4DEX-14D220431712022-12-07 00:44:1435.93-78.37038620433304Clb=6.0m/s Type=DFM17 ser=[BC]22043171 Details on http://radiosondy.info
W4DEX-14D220431712022-12-07 00:43:5635.9299-78.37968919333196Clb=8.9m/s Type=DFM17 ser=[BC]22043171 Details on http://radiosondy.info
W4DEX-14D220431712022-12-07 00:43:4135.9291-78.38848517633090Clb=10.6m/s Type=DFM17 ser=[BC]22043171 Details on http://radiosondy.info
W4DEX-14D220431712022-12-07 00:43:2635.929-78.39649418032986Clb=10.7m/s Type=DFM17 ser=[BC]22043171 Details on http://radiosondy.info
W4DEX-14D220431712022-12-07 00:43:1135.9288-78.40468517432874Clb=8.0m/s Type=DFM17 ser=[BC]22043171 Details on http://radiosondy.info
W4DEX-14D220431712022-12-07 00:42:5635.9291-78.41269418732764Clb=12.0m/s Type=DFM17 ser=[BC]22043171 Details on http://radiosondy.info
W4DEX-14D220431712022-12-07 00:42:4235.9291-78.42129218032653Clb=10.6m/s Type=DFM17 ser=[BC]22043171 Details on http://radiosondy.info
W4DEX-14D220431712022-12-07 00:42:2935.9295-78.42949317832537Clb=7.9m/s Type=DFM17 ser=[BC]22043171 Details on http://radiosondy.info
W4DEX-14D220431712022-12-07 00:42:1135.9295-78.43759516732426Clb=6.7m/s Type=DFM17 ser=[BC]22043171 Details on http://radiosondy.info
W4DEX-14D220431712022-12-07 00:41:5735.9294-78.44518615232312Clb=9.9m/s Type=DFM17 ser=[BC]22043171 Details on http://radiosondy.info
W4DEX-14D220431712022-12-07 00:41:5635.9293-78.4529115232200Clb=5.0m/s Type=DFM17 ser=[BC]22043171 Details on http://radiosondy.info
W4DEX-14D220431712022-12-07 00:41:5535.9291-78.45898215232090Clb=8.8m/s Type=DFM17 ser=[BC]22043171 Details on http://radiosondy.info
W4DEX-14D220431712022-12-07 00:41:5435.9284-78.46597814431984Clb=4.9m/s Type=DFM17 ser=[BC]22043171 Details on http://radiosondy.info
W4DEX-14D220431712022-12-07 00:41:5035.9279-78.47259514431878Clb=5.7m/s Type=DFM17 ser=[BC]22043171 Details on http://radiosondy.info
W4DEX-14D220431712022-12-07 00:41:4735.9277-78.4798715031777Clb=9.5m/s Type=DFM17 ser=[BC]22043171 Details on http://radiosondy.info
W4DEX-14D220431712022-12-07 00:41:4235.9274-78.48598115031680Clb=5.0m/s Type=DFM17 ser=[BC]22043171 Details on http://radiosondy.info
W4DEX-14D220431712022-12-07 00:41:3935.9268-78.49268615431592Clb=6.0m/s Type=DFM17 ser=[BC]22043171 Details on http://radiosondy.info
W4DEX-14D220431712022-12-07 00:41:3435.926-78.50058215731479Clb=6.7m/s Type=DFM17 ser=[BC]22043171 Details on http://radiosondy.info
W4DEX-14D220431712022-12-07 00:41:3335.9254-78.50768715431388Clb=5.7m/s Type=DFM17 ser=[BC]22043171 Details on http://radiosondy.info
W4DEX-14D220431712022-12-07 00:41:3235.9248-78.51479115731291Clb=5.9m/s Type=DFM17 ser=[BC]22043171 Details on http://radiosondy.info
W4DEX-14D220431712022-12-07 00:41:3135.9246-78.52968516931094Clb=6.6m/s Type=DFM17 ser=[BC]22043171 Details on http://radiosondy.info
W4DEX-14D220431712022-12-07 00:41:3035.9246-78.53749517630994Clb=3.5m/s Type=DFM17 ser=[BC]22043171 Details on http://radiosondy.info
W4DEX-14D220431712022-12-07 00:41:2935.9243-78.54558717630884Clb=7.8m/s Type=DFM17 ser=[BC]22043171 Details on http://radiosondy.info
W4DEX-14D220431712022-12-07 00:41:2835.9237-78.55358717830775Clb=8.4m/s Type=DFM17 ser=[BC]22043171 Details on http://radiosondy.info
W4DEX-14D220431712022-12-07 00:41:2735.9228-78.56156916730669Clb=4.2m/s Type=DFM17 ser=[BC]22043171 Details on http://radiosondy.info
W4DEX-14D220431712022-12-07 00:41:2635.9218-78.5698914630567Clb=4.8m/s Type=DFM17 ser=[BC]22043171 Details on http://radiosondy.info
W4DEX-14D220431712022-12-07 00:41:2535.9198-78.58227015230366Clb=5.8m/s Type=DFM17 ser=[BC]22043171 Details on http://radiosondy.info
W4DEX-14D220431712022-12-07 00:41:2435.9186-78.58917913930269Clb=5.0m/s Type=DFM17 ser=[BC]22043171 Details on http://radiosondy.info
W4DEX-14D220431712022-12-07 00:41:2335.9177-78.59547813030178Clb=7.5m/s Type=DFM17 ser=[BC]22043171 Details on http://radiosondy.info
W4DEX-14D220431712022-12-07 00:41:2235.9172-78.60129213030088Clb=6.2m/s Type=DFM17 ser=[BC]22043171 Details on http://radiosondy.info
W4DEX-14D220431712022-12-07 00:41:1535.9169-78.60729313129996Clb=4.1m/s Type=DFM17 ser=[BC]22043171 Details on http://radiosondy.info
W4DEX-14D220431712022-12-07 00:40:5635.9169-78.61329213329899Clb=5.1m/s Type=DFM17 ser=[BC]22043171 Details on http://radiosondy.info
W4DEX-14D220431712022-12-07 00:40:3335.9168-78.61938613729799Clb=5.4m/s Type=DFM17 ser=[BC]22043171 Details on http://radiosondy.info
W4DEX-14D220431712022-12-07 00:40:0835.9162-78.62558613929700Clb=10.0m/s Type=DFM17 ser=[BC]22043171 Details on http://radiosondy.info
W4DEX-14D220431712022-12-07 00:39:4635.9157-78.63178313529597Clb=6.4m/s Type=DFM17 ser=[BC]22043171 Details on http://radiosondy.info
W4DEX-14D220431712022-12-07 00:39:2335.9154-78.63798513329492Clb=5.7m/s Type=DFM17 ser=[BC]22043171 Details on http://radiosondy.info
W4DEX-14D220431712022-12-07 00:39:0135.9154-78.64419112629387Clb=8.0m/s Type=DFM17 ser=[BC]22043171 Details on http://radiosondy.info
W4DEX-14D220431712022-12-07 00:38:3835.9155-78.64989110729282Clb=8.9m/s Type=DFM17 ser=[BC]22043171 Details on http://radiosondy.info
W4DEX-14D220431712022-12-07 00:38:1535.9157-78.654710210729178Clb=5.6m/s Type=DFM17 ser=[BC]22043171 Details on http://radiosondy.info
W4DEX-14D220431712022-12-07 00:37:5135.9157-78.65968510029079Clb=7.2m/s Type=DFM17 ser=[BC]22043171 Details on http://radiosondy.info
W4DEX-14D220431712022-12-07 00:37:2635.9153-78.66418410428983Clb=6.4m/s Type=DFM17 ser=[BC]22043171 Details on http://radiosondy.info
W4DEX-14D220431712022-12-07 00:36:5935.9152-78.66887710728887Clb=5.8m/s Type=DFM17 ser=[BC]22043171 Details on http://radiosondy.info
W4DEX-14D220431712022-12-07 00:36:3435.9148-78.67378611128801Clb=6.6m/s Type=DFM17 ser=[BC]22043171 Details on http://radiosondy.info
W4DEX-14D220431712022-12-07 00:36:0935.9145-78.67878610028708Clb=5.3m/s Type=DFM17 ser=[BC]22043171 Details on http://radiosondy.info
W4DEX-14D220431712022-12-07 00:35:4635.9142-78.68339811328620Clb=4.0m/s Type=DFM17 ser=[BC]22043171 Details on http://radiosondy.info
W4DEX-14D220431712022-12-07 00:35:2035.9139-78.68849211528534Clb=3.7m/s Type=DFM17 ser=[BC]22043171 Details on http://radiosondy.info
W4DEX-14D220431712022-12-07 00:34:5935.9133-78.69378511528447Clb=4.6m/s Type=DFM17 ser=[BC]22043171 Details on http://radiosondy.info
W4DEX-14D220431712022-12-07 00:34:3435.9127-78.69897611528356Clb=7.1m/s Type=DFM17 ser=[BC]22043171 Details on http://radiosondy.info
W4DEX-14D220431712022-12-07 00:34:1135.912-78.70417611728266Clb=8.1m/s Type=DFM17 ser=[BC]22043171 Details on http://radiosondy.info
W4DEX-14D220431712022-12-07 00:33:4535.9112-78.70948310928168Clb=10.1m/s Type=DFM17 ser=[BC]22043171 Details on http://radiosondy.info
W4DEX-14D220431712022-12-07 00:33:2135.9107-78.71438310028068Clb=8.2m/s Type=DFM17 ser=[BC]22043171 Details on http://radiosondy.info
W4DEX-14D220431712022-12-07 00:32:5435.9101-78.7188749627963Clb=6.3m/s Type=DFM17 ser=[BC]22043171 Details on http://radiosondy.info
W4DEX-14D220431712022-12-07 00:32:2735.9097-78.72338510727850Clb=9.4m/s Type=DFM17 ser=[BC]22043171 Details on http://radiosondy.info
W4DEX-14D220431712022-12-07 00:31:5835.909-78.72817210627739Clb=8.2m/s Type=DFM17 ser=[BC]22043171 Details on http://radiosondy.info
W4DEX-14D220431712022-12-07 00:31:3335.9077-78.7326709427630Clb=9.1m/s Type=DFM17 ser=[BC]22043171 Details on http://radiosondy.info
W4DEX-14D220431712022-12-07 00:31:0835.9064-78.7367599127526Clb=7.3m/s Type=DFM17 ser=[BC]22043171 Details on http://radiosondy.info
W4DEX-14D220431712022-12-07 00:30:4435.9053-78.7406679127420Clb=5.9m/s Type=DFM17 ser=[BC]22043171 Details on http://radiosondy.info
W4DEX-14D220431712022-12-07 00:30:1935.9042-78.7445688127314Clb=8.1m/s Type=DFM17 ser=[BC]22043171 Details on http://radiosondy.info
W4DEX-14D220431712022-12-07 00:30:0235.9034-78.7481668727220Clb=3.9m/s Type=DFM17 ser=[BC]22043171 Details on http://radiosondy.info
W4DEX-14D220431712022-12-07 00:29:2835.903-78.7521769827123Clb=4.4m/s Type=DFM17 ser=[BC]22043171 Details on http://radiosondy.info
W4DEX-14D220431712022-12-07 00:29:0335.9024-78.7565759127024Clb=5.3m/s Type=DFM17 ser=[BC]22043171 Details on http://radiosondy.info
W4DEX-14D220431712022-12-07 00:28:3835.9019-78.7606769126929Clb=6.3m/s Type=DFM17 ser=[BC]22043171 Details on http://radiosondy.info
W4DEX-14D220431712022-12-07 00:28:1335.901-78.7646679426835Clb=5.4m/s Type=DFM17 ser=[BC]22043171 Details on http://radiosondy.info
W4DEX-14D220431712022-12-07 00:27:5435.9-78.7688799326740Clb=7.1m/s Type=DFM17 ser=[BC]22043171 Details on http://radiosondy.info
W4DEX-14D220431712022-12-07 00:27:4235.8828-78.8172924625016Clb=4.6m/s Type=DFM17 ser=[BC]22043171 Details on http://radiosondy.info
W4DEX-14D220431712022-12-07 00:27:4135.8826-78.8193955024940Clb=4.8m/s Type=DFM17 ser=[BC]22043171 Details on http://radiosondy.info
W4DEX-14D220431712022-12-07 00:27:3035.8822-78.8215745224867Clb=5.3m/s Type=DFM17 ser=[BC]22043171 Details on http://radiosondy.info
W4DEX-14D220431712022-12-07 00:27:1235.882-78.8238764424802Clb=1.8m/s Type=DFM17 ser=[BC]22043171 Details on http://radiosondy.info
W4DEX-14D220431712022-12-07 00:27:0135.8821-78.8258933124737Clb=3.2m/s Type=DFM17 ser=[BC]22043171 Details on http://radiosondy.info
W4DEX-14D220431712022-12-07 00:27:0035.8824-78.82721003124667Clb=3.0m/s Type=DFM17 ser=[BC]22043171 Details on http://radiosondy.info
W4DEX-14D220431712022-12-07 00:26:5935.8829-78.82851173924597Clb=5.9m/s Type=DFM17 ser=[BC]22043171 Details on http://radiosondy.info
W4DEX-14D220431712022-12-07 00:26:5835.8837-78.831405624523Clb=3.4m/s Type=DFM17 ser=[BC]22043171 Details on http://radiosondy.info
W4DEX-14D220431712022-12-07 00:26:5735.885-78.83451195624372Clb=5.3m/s Type=DFM17 ser=[BC]22043171 Details on http://radiosondy.info
W4DEX-14D220431712022-12-07 00:26:4535.8855-78.8371026524283Clb=6.5m/s Type=DFM17 ser=[BC]22043171 Details on http://radiosondy.info
W4DEX-14D220431712022-12-07 00:26:2335.8859-78.8399825924185Clb=5.1m/s Type=DFM17 ser=[BC]22043171 Details on http://radiosondy.info
W4DEX-14D220431712022-12-07 00:25:5635.886-78.8426905624080Clb=8.6m/s Type=DFM17 ser=[BC]22043171 Details on http://radiosondy.info
W4DEX-14D220431712022-12-07 00:25:3235.8857-78.8452905923969Clb=8.2m/s Type=DFM17 ser=[BC]22043171 Details on http://radiosondy.info
W4DEX-14D220431712022-12-07 00:25:0735.8853-78.8477885623859Clb=6.8m/s Type=DFM17 ser=[BC]22043171 Details on http://radiosondy.info
W4DEX-14D220431712022-12-07 00:24:4335.885-78.85031025023748Clb=7.0m/s Type=DFM17 ser=[BC]22043171 Details on http://radiosondy.info
W4DEX-14D220431712022-12-07 00:24:1635.8852-78.8525955023640Clb=8.1m/s Type=DFM17 ser=[BC]22043171 Details on http://radiosondy.info
W4DEX-14D220431712022-12-07 00:23:5035.8852-78.8548754623539Clb=6.5m/s Type=DFM17 ser=[BC]22043171 Details on http://radiosondy.info
W4DEX-14D220431712022-12-07 00:23:2335.8849-78.8568743923448Clb=6.6m/s Type=DFM17 ser=[BC]22043171 Details on http://radiosondy.info
W4DEX-14D220431712022-12-07 00:22:5735.8846-78.85841013323359Clb=4.3m/s Type=DFM17 ser=[BC]22043171 Details on http://radiosondy.info
W4DEX-14D220431712022-12-07 00:22:2935.8843-78.8599832623281Clb=5.5m/s Type=DFM17 ser=[BC]22043171 Details on http://radiosondy.info
W4DEX-14D220431712022-12-07 00:22:0435.8843-78.8611302423205Clb=3.8m/s Type=DFM17 ser=[BC]22043171 Details on http://radiosondy.info
W4DEX-14D220431712022-12-07 00:21:3835.8846-78.86211193323129Clb=5.6m/s Type=DFM17 ser=[BC]22043171 Details on http://radiosondy.info
W4DEX-14D220431712022-12-07 00:21:1435.8853-78.86341143723059Clb=5.4m/s Type=DFM17 ser=[BC]22043171 Details on http://radiosondy.info
W4DEX-14D220431712022-12-07 00:20:4735.8859-78.86491273322994Clb=4.1m/s Type=DFM17 ser=[BC]22043171 Details on http://radiosondy.info
W4DEX-14D220431712022-12-07 00:20:2335.8862-78.86631204422929Clb=5.4m/s Type=DFM17 ser=[BC]22043171 Details on http://radiosondy.info
W4DEX-14D220431712022-12-07 00:19:5635.8869-78.86811044122865Clb=6.3m/s Type=DFM17 ser=[BC]22043171 Details on http://radiosondy.info
W4DEX-14D220431712022-12-07 00:19:3235.8874-78.86991234122800Clb=3.5m/s Type=DFM17 ser=[BC]22043171 Details on http://radiosondy.info
W4DEX-14D220431712022-12-07 00:19:0535.8877-78.8717974422733Clb=4.7m/s Type=DFM17 ser=[BC]22043171 Details on http://radiosondy.info
W4DEX-14D220431712022-12-07 00:18:4035.8878-78.8738845022661Clb=4.6m/s Type=DFM17 ser=[BC]22043171 Details on http://radiosondy.info
W4DEX-14D220431712022-12-07 00:18:1335.8875-78.876765622582Clb=5.1m/s Type=DFM17 ser=[BC]22043171 Details on http://radiosondy.info
W4DEX-14D220431712022-12-07 00:17:4835.8869-78.8784785422499Clb=6.7m/s Type=DFM17 ser=[BC]22043171 Details on http://radiosondy.info
W4DEX-14D220431712022-12-07 00:17:2135.8862-78.8806574822406Clb=5.9m/s Type=DFM17 ser=[BC]22043171 Details on http://radiosondy.info
W4DEX-14D220431712022-12-07 00:16:5335.8856-78.8827784822306Clb=6.6m/s Type=DFM17 ser=[BC]22043171 Details on http://radiosondy.info
W4DEX-14D220431712022-12-07 00:16:2735.885-78.8848784122204Clb=8.3m/s Type=DFM17 ser=[BC]22043171 Details on http://radiosondy.info
W4DEX-14D220431712022-12-07 00:16:0135.8845-78.8865663722103Clb=5.8m/s Type=DFM17 ser=[BC]22043171 Details on http://radiosondy.info
W4DEX-14D220431712022-12-07 00:15:3635.8842-78.8881763522003Clb=7.1m/s Type=DFM17 ser=[BC]22043171 Details on http://radiosondy.info
W4DEX-14D220431712022-12-07 00:15:1235.8841-78.8897803721907Clb=7.9m/s Type=DFM17 ser=[BC]22043171 Details on http://radiosondy.info
W4DEX-14D220431712022-12-07 00:14:4535.8841-78.8914923921812Clb=5.8m/s Type=DFM17 ser=[BC]22043171 Details on http://radiosondy.info
W4DEX-14D220431712022-12-07 00:14:2035.8842-78.89311043321720Clb=6.3m/s Type=DFM17 ser=[BC]22043171 Details on http://radiosondy.info
W4DEX-14D220431712022-12-07 00:13:5435.8845-78.89461092421633Clb=6.9m/s Type=DFM17 ser=[BC]22043171 Details on http://radiosondy.info
W4DEX-14D220431712022-12-07 00:13:2935.8846-78.8957862621551Clb=4.5m/s Type=DFM17 ser=[BC]22043171 Details on http://radiosondy.info
W4DEX-14D220431712022-12-07 00:13:0335.8845-78.8969633021473Clb=6.3m/s Type=DFM17 ser=[BC]22043171 Details on http://radiosondy.info
W4DEX-14D220431712022-12-07 00:12:3935.8842-78.8996642421317Clb=4.8m/s Type=DFM17 ser=[BC]22043171 Details on http://radiosondy.info
W4DEX-14D220431712022-12-07 00:12:1235.884-78.9006752821242Clb=3.7m/s Type=DFM17 ser=[BC]22043171 Details on http://radiosondy.info
W4DEX-14D220431712022-12-07 00:11:5435.8837-78.9018873121170Clb=6.2m/s Type=DFM17 ser=[BC]22043171 Details on http://radiosondy.info
W4DEX-14D220431712022-12-07 00:11:3935.8834-78.9032784121093Clb=5.0m/s Type=DFM17 ser=[BC]22043171 Details on http://radiosondy.info
W4DEX-14D220431712022-12-07 00:11:2735.883-78.905853521016Clb=6.0m/s Type=DFM17 ser=[BC]22043171 Details on http://radiosondy.info
W4DEX-14D220431712022-12-07 00:11:1035.8824-78.9064403520937Clb=6.0m/s Type=DFM17 ser=[BC]22043171 Details on http://radiosondy.info
W4DEX-14D220431712022-12-07 00:10:5635.8814-78.9074423020856Clb=3.8m/s Type=DFM17 ser=[BC]22043171 Details on http://radiosondy.info
W4DEX-14D220431712022-12-07 00:10:5135.8806-78.9082232620775Clb=6.3m/s Type=DFM17 ser=[BC]22043171 Details on http://radiosondy.info
W4DEX-14D220431712022-12-07 00:10:4535.8799-78.9088641720691Clb=7.2m/s Type=DFM17 ser=[BC]22043171 Details on http://radiosondy.info
W4DEX-14D220431712022-12-07 00:10:4135.8797-78.9095761520609Clb=5.1m/s Type=DFM17 ser=[BC]22043171 Details on http://radiosondy.info
W4DEX-14D220431712022-12-07 00:10:2535.8797-78.91011571320523Clb=4.6m/s Type=DFM17 ser=[BC]22043171 Details on http://radiosondy.info
W4DEX-14D220431712022-12-07 00:10:1035.88-78.9106942220437Clb=5.4m/s Type=DFM17 ser=[BC]22043171 Details on http://radiosondy.info
W4DEX-14D220431712022-12-07 00:10:0135.88-78.91161003120352Clb=6.5m/s Type=DFM17 ser=[BC]22043171 Details on http://radiosondy.info
W4DEX-14D220431712022-12-07 00:09:5935.8801-78.9131903720265Clb=5.1m/s Type=DFM17 ser=[BC]22043171 Details on http://radiosondy.info
W4DEX-14D220431712022-12-07 00:09:5535.8802-78.9148983120182Clb=5.0m/s Type=DFM17 ser=[BC]22043171 Details on http://radiosondy.info
W4DEX-14D220431712022-12-07 00:09:5035.8801-78.9162743020103Clb=5.7m/s Type=DFM17 ser=[BC]22043171 Details on http://radiosondy.info
W4DEX-14D220431712022-12-07 00:09:4835.8799-78.9175812620020Clb=6.0m/s Type=DFM17 ser=[BC]22043171 Details on http://radiosondy.info
W4DEX-14D220431712022-12-07 00:09:4735.8793-78.9196992819862Clb=6.1m/s Type=DFM17 ser=[BC]22043171 Details on http://radiosondy.info
W4DEX-14D220431712022-12-07 00:09:4635.8793-78.9209933319782Clb=4.5m/s Type=DFM17 ser=[BC]22043171 Details on http://radiosondy.info
W4DEX-14D220431712022-12-07 00:09:4535.8792-78.9225764119704Clb=4.7m/s Type=DFM17 ser=[BC]22043171 Details on http://radiosondy.info
W4DEX-14D220431712022-12-07 00:09:4435.8787-78.9242664319628Clb=4.5m/s Type=DFM17 ser=[BC]22043171 Details on http://radiosondy.info
W4DEX-14D220431712022-12-07 00:09:4335.8787-78.92621123719557Clb=5.1m/s Type=DFM17 ser=[BC]22043171 Details on http://radiosondy.info
W4DEX-14D220431712022-12-07 00:09:4235.8791-78.9292942619422Clb=5.3m/s Type=DFM17 ser=[BC]22043171 Details on http://radiosondy.info
W4DEX-14D220431712022-12-07 00:09:4135.8793-78.93021124619358Clb=7.6m/s Type=DFM17 ser=[BC]22043171 Details on http://radiosondy.info
W4DEX-14D220431712022-12-07 00:09:3835.8802-78.93211115219275Clb=5.0m/s Type=DFM17 ser=[BC]22043171 Details on http://radiosondy.info
W4DEX-14D220431712022-12-07 00:09:2335.8808-78.93431076119188Clb=7.1m/s Type=DFM17 ser=[BC]22043171 Details on http://radiosondy.info
W4DEX-14D220431712022-12-07 00:08:5735.8812-78.9371866719110Clb=4.7m/s Type=DFM17 ser=[BC]22043171 Details on http://radiosondy.info
W4DEX-14D220431712022-12-07 00:08:3435.8811-78.9401785619030Clb=6.6m/s Type=DFM17 ser=[BC]22043171 Details on http://radiosondy.info
W4DEX-14D220431712022-12-07 00:08:0935.8809-78.9426954818943Clb=6.1m/s Type=DFM17 ser=[BC]22043171 Details on http://radiosondy.info
W4DEX-14D220431712022-12-07 00:07:4735.8807-78.9449784318856Clb=5.3m/s Type=DFM17 ser=[BC]22043171 Details on http://radiosondy.info
W4DEX-14D220431712022-12-07 00:07:2135.8805-78.9467793518767Clb=4.9m/s Type=DFM17 ser=[BC]22043171 Details on http://radiosondy.info
W4DEX-14D220431712022-12-07 00:06:5735.8801-78.9483864118680Clb=4.0m/s Type=DFM17 ser=[BC]22043171 Details on http://radiosondy.info
W4DEX-14D220431712022-12-07 00:06:3135.8799-78.9501754118597Clb=6.0m/s Type=DFM17 ser=[BC]22043171 Details on http://radiosondy.info
W4DEX-14D220431712022-12-07 00:06:0535.88-78.9518934418504Clb=6.0m/s Type=DFM17 ser=[BC]22043171 Details on http://radiosondy.info
W4DEX-14D220431712022-12-07 00:05:3935.8805-78.95371255418410Clb=6.8m/s Type=DFM17 ser=[BC]22043171 Details on http://radiosondy.info
W4DEX-14D220431712022-12-07 00:05:1535.8812-78.95591336318310Clb=7.1m/s Type=DFM17 ser=[BC]22043171 Details on http://radiosondy.info
W4DEX-14D220431712022-12-07 00:04:4935.8823-78.95851167418194Clb=5.7m/s Type=DFM17 ser=[BC]22043171 Details on http://radiosondy.info
W4DEX-14D220431712022-12-07 00:04:2735.8835-78.96151128318074Clb=6.5m/s Type=DFM17 ser=[BC]22043171 Details on http://radiosondy.info
W4DEX-14D220431712022-12-07 00:04:0135.8849-78.9651109117990Clb=4.0m/s Type=DFM17 ser=[BC]22043171 Details on http://radiosondy.info
W4DEX-14D220431712022-12-07 00:03:3735.886-78.96891128917919Clb=4.8m/s Type=DFM17 ser=[BC]22043171 Details on http://radiosondy.info
W4DEX-14D220431712022-12-07 00:03:1235.8869-78.97291069617849Clb=6.0m/s Type=DFM17 ser=[BC]22043171 Details on http://radiosondy.info
W4DEX-14D220431712022-12-07 00:02:4935.8875-78.9772979417780Clb=5.6m/s Type=DFM17 ser=[BC]22043171 Details on http://radiosondy.info
W4DEX-14D220431712022-12-07 00:02:2335.8881-78.98161029617713Clb=3.8m/s Type=DFM17 ser=[BC]22043171 Details on http://radiosondy.info
W4DEX-14D220431712022-12-07 00:01:5835.889-78.98591049617646Clb=2.9m/s Type=DFM17 ser=[BC]22043171 Details on http://radiosondy.info
W4DEX-14D220431712022-12-07 00:01:3135.8899-78.990210810017576Clb=6.5m/s Type=DFM17 ser=[BC]22043171 Details on http://radiosondy.info
W4DEX-14D220431712022-12-07 00:01:0635.8911-78.994610610417508Clb=5.6m/s Type=DFM17 ser=[BC]22043171 Details on http://radiosondy.info
W4DEX-14D220431712022-12-07 00:00:3835.8923-78.999111110417435Clb=5.2m/s Type=DFM17 ser=[BC]22043171 Details on http://radiosondy.info
W4DEX-14D220431712022-12-07 00:00:1335.8935-79.003710710417360Clb=6.1m/s Type=DFM17 ser=[BC]22043171 Details on http://radiosondy.info
W4DEX-14D220431712022-12-06 23:59:5435.8948-79.008111110917286Clb=4.5m/s Type=DFM17 ser=[BC]22043171 Details on http://radiosondy.info
W4DEX-14D220431712022-12-06 23:59:3935.8972-79.018110911717136Clb=5.5m/s Type=DFM17 ser=[BC]22043171 Details on http://radiosondy.info
W4DEX-14D220431712022-12-06 23:59:3835.8984-79.023210411717058Clb=5.5m/s Type=DFM17 ser=[BC]22043171 Details on http://radiosondy.info
W4DEX-14D220431712022-12-06 23:59:3735.8993-79.028510012416981Clb=5.9m/s Type=DFM17 ser=[BC]22043171 Details on http://radiosondy.info
W4DEX-14D220431712022-12-06 23:59:3635.9005-79.03959510916829Clb=4.5m/s Type=DFM17 ser=[BC]22043171 Details on http://radiosondy.info
W4DEX-14D220431712022-12-06 23:59:3435.901-79.04449910416751Clb=6.5m/s Type=DFM17 ser=[BC]22043171 Details on http://radiosondy.info
W4DEX-14D220431712022-12-06 23:59:3035.9017-79.04911039816667Clb=4.4m/s Type=DFM17 ser=[BC]22043171 Details on http://radiosondy.info
W4DEX-14D220431712022-12-06 23:59:2535.9027-79.053510810416588Clb=4.6m/s Type=DFM17 ser=[BC]22043171 Details on http://radiosondy.info
W4DEX-14D220431712022-12-06 23:59:0935.904-79.05811310616508Clb=6.5m/s Type=DFM17 ser=[BC]22043171 Details on http://radiosondy.info
W4DEX-14D220431712022-12-06 23:59:0135.9055-79.062511311116430Clb=4.2m/s Type=DFM17 ser=[BC]22043171 Details on http://radiosondy.info
W4DEX-14D220431712022-12-06 23:59:0035.9071-79.067211011516356Clb=4.9m/s Type=DFM17 ser=[BC]22043171 Details on http://radiosondy.info
W4DEX-14D220431712022-12-06 23:58:5935.9084-79.072211011316281Clb=5.4m/s Type=DFM17 ser=[BC]22043171 Details on http://radiosondy.info
W4DEX-14D220431712022-12-06 23:58:5835.9095-79.077210111316202Clb=5.6m/s Type=DFM17 ser=[BC]22043171 Details on http://radiosondy.info
W4DEX-14D220431712022-12-06 23:58:4935.9102-79.08239511316128Clb=3.2m/s Type=DFM17 ser=[BC]22043171 Details on http://radiosondy.info
W4DEX-14D220431712022-12-06 23:58:2635.9107-79.08759410716048Clb=4.8m/s Type=DFM17 ser=[BC]22043171 Details on http://radiosondy.info
W4DEX-14D220431712022-12-06 23:58:0135.9109-79.09259310215975Clb=5.6m/s Type=DFM17 ser=[BC]22043171 Details on http://radiosondy.info
W4DEX-14D220431712022-12-06 23:57:3535.9108-79.0972899415905Clb=5.5m/s Type=DFM17 ser=[BC]22043171 Details on http://radiosondy.info
W4DEX-14D220431712022-12-06 23:57:0735.9107-79.1015859815825Clb=4.6m/s Type=DFM17 ser=[BC]22043171 Details on http://radiosondy.info
W4DEX-14D220431712022-12-06 23:56:4235.9107-79.1069310215720Clb=12.1m/s Type=DFM17 ser=[BC]22043171 Details on http://radiosondy.info
W4DEX-14D220431712022-12-06 23:56:1635.9111-79.11071049615623Clb=6.6m/s Type=DFM17 ser=[BC]22043171 Details on http://radiosondy.info
W4DEX-14D220431712022-12-06 23:55:5235.9118-79.1151019815548Clb=4.3m/s Type=DFM17 ser=[BC]22043171 Details on http://radiosondy.info
W4DEX-14D220431712022-12-06 23:55:2735.9125-79.119510910015477Clb=5.4m/s Type=DFM17 ser=[BC]22043171 Details on http://radiosondy.info
W4DEX-14D220431712022-12-06 23:55:0435.9135-79.123910810215400Clb=6.0m/s Type=DFM17 ser=[BC]22043171 Details on http://radiosondy.info
W4DEX-14D220431712022-12-06 23:54:4135.9147-79.128411111315319Clb=6.8m/s Type=DFM17 ser=[BC]22043171 Details on http://radiosondy.info
W4DEX-14D220431712022-12-06 23:54:1735.9162-79.133310811915242Clb=4.4m/s Type=DFM17 ser=[BC]22043171 Details on http://radiosondy.info
W4DEX-14D220431712022-12-06 23:53:5335.9176-79.138510912215171Clb=5.9m/s Type=DFM17 ser=[BC]22043171 Details on http://radiosondy.info
W4DEX-14D220431712022-12-06 23:53:2835.9191-79.143811212415099Clb=4.2m/s Type=DFM17 ser=[BC]22043171 Details on http://radiosondy.info
W4DEX-14D220431712022-12-06 23:53:0535.9208-79.149210813015027Clb=3.9m/s Type=DFM17 ser=[BC]22043171 Details on http://radiosondy.info
W4DEX-14D220431712022-12-06 23:52:3935.9222-79.154911012614952Clb=3.5m/s Type=DFM17 ser=[BC]22043171 Details on http://radiosondy.info
W4DEX-14D220431712022-12-06 23:52:1335.9237-79.160510812414881Clb=3.6m/s Type=DFM17 ser=[BC]22043171 Details on http://radiosondy.info
W4DEX-14D220431712022-12-06 23:51:5435.9251-79.165911012214812Clb=4.7m/s Type=DFM17 ser=[BC]22043171 Details on http://radiosondy.info
W4DEX-14D220431712022-12-06 23:51:3935.9265-79.171310812214742Clb=3.4m/s Type=DFM17 ser=[BC]22043171 Details on http://radiosondy.info
W4DEX-14D220431712022-12-06 23:51:2735.9279-79.176611012614674Clb=5.2m/s Type=DFM17 ser=[BC]22043171 Details on http://radiosondy.info
W4DEX-14D220431712022-12-06 23:51:2635.9295-79.182110613014604Clb=4.3m/s Type=DFM17 ser=[BC]22043171 Details on http://radiosondy.info
W4DEX-14D220431712022-12-06 23:51:1635.9313-79.187611313514531Clb=4.4m/s Type=DFM17 ser=[BC]22043171 Details on http://radiosondy.info
W4DEX-14D220431712022-12-06 23:51:0235.9335-79.193311814114466Clb=5.1m/s Type=DFM17 ser=[BC]22043171 Details on http://radiosondy.info
W4DEX-14D220431712022-12-06 23:50:5735.9358-79.19911814114400Clb=5.0m/s Type=DFM17 ser=[BC]22043171 Details on http://radiosondy.info
W4DEX-14D220431712022-12-06 23:50:5635.9381-79.204911714114334Clb=4.2m/s Type=DFM17 ser=[BC]22043171 Details on http://radiosondy.info
W4DEX-14D220431712022-12-06 23:50:5535.9403-79.210811314614267Clb=3.8m/s Type=DFM17 ser=[BC]22043171 Details on http://radiosondy.info
W4DEX-14D220431712022-12-06 23:50:5435.9441-79.223911115014128Clb=5.0m/s Type=DFM17 ser=[BC]22043171 Details on http://radiosondy.info
W4DEX-14D220431712022-12-06 23:50:5335.9459-79.230411015614054Clb=5.6m/s Type=DFM17 ser=[BC]22043171 Details on http://radiosondy.info
W4DEX-14D220431712022-12-06 23:50:5235.9479-79.237211215213980Clb=4.7m/s Type=DFM17 ser=[BC]22043171 Details on http://radiosondy.info
W4DEX-14D220431712022-12-06 23:50:5135.9499-79.243711215713907Clb=5.0m/s Type=DFM17 ser=[BC]22043171 Details on http://radiosondy.info
W4DEX-14D220431712022-12-06 23:50:4135.9522-79.250411316313832Clb=6.0m/s Type=DFM17 ser=[BC]22043171 Details on http://radiosondy.info
W4DEX-14D220431712022-12-06 23:50:2435.9547-79.257211516713760Clb=4.0m/s Type=DFM17 ser=[BC]22043171 Details on http://radiosondy.info
W4DEX-14D220431712022-12-06 23:50:0035.9571-79.264311416913687Clb=4.2m/s Type=DFM17 ser=[BC]22043171 Details on http://radiosondy.info
W4DEX-14D220431712022-12-06 23:49:3735.9594-79.271610916713617Clb=5.0m/s Type=DFM17 ser=[BC]22043171 Details on http://radiosondy.info
W4DEX-14D220431712022-12-06 23:49:1335.9613-79.278910816713543Clb=4.3m/s Type=DFM17 ser=[BC]22043171 Details on http://radiosondy.info
W4DEX-14D220431712022-12-06 23:48:5035.9631-79.286310716313474Clb=3.8m/s Type=DFM17 ser=[BC]22043171 Details on http://radiosondy.info
W4DEX-14D220431712022-12-06 23:48:2735.9646-79.293610115613405Clb=3.5m/s Type=DFM17 ser=[BC]22043171 Details on http://radiosondy.info
W4DEX-14D220431712022-12-06 23:48:0435.9657-79.300610215013337Clb=4.4m/s Type=DFM17 ser=[BC]22043171 Details on http://radiosondy.info
W4DEX-14D220431712022-12-06 23:47:4735.9668-79.30739914613271Clb=5.3m/s Type=DFM17 ser=[BC]22043171 Details on http://radiosondy.info
W4DEX-14D220431712022-12-06 23:47:2235.968-79.313910514313207Clb=3.8m/s Type=DFM17 ser=[BC]22043171 Details on http://radiosondy.info
W4DEX-14D220431712022-12-06 23:46:5635.9695-79.320310714113142Clb=3.3m/s Type=DFM17 ser=[BC]22043171 Details on http://radiosondy.info
W4DEX-14D220431712022-12-06 23:46:3135.9712-79.326411114313074Clb=3.8m/s Type=DFM17 ser=[BC]22043171 Details on http://radiosondy.info
W4DEX-14D220431712022-12-06 23:46:0735.973-79.332611414113010Clb=5.0m/s Type=DFM17 ser=[BC]22043171 Details on http://radiosondy.info
W4DEX-14D220431712022-12-06 23:45:4335.9752-79.338511814412941Clb=3.2m/s Type=DFM17 ser=[BC]22043171 Details on http://radiosondy.info
W4DEX-14D220431712022-12-06 23:45:2035.9778-79.344312015012872Clb=3.5m/s Type=DFM17 ser=[BC]22043171 Details on http://radiosondy.info
W4DEX-14D220431712022-12-06 23:44:5735.9806-79.350411815412803Clb=4.5m/s Type=DFM17 ser=[BC]22043171 Details on http://radiosondy.info
W4DEX-14D220431712022-12-06 23:44:3535.9833-79.356611815212734Clb=4.2m/s Type=DFM17 ser=[BC]22043171 Details on http://radiosondy.info
W4DEX-14D220431712022-12-06 23:44:1235.9858-79.362811615012662Clb=4.0m/s Type=DFM17 ser=[BC]22043171 Details on http://radiosondy.info
W4DEX-14D220431712022-12-06 23:43:5435.9883-79.36911814612590Clb=5.9m/s Type=DFM17 ser=[BC]22043171 Details on http://radiosondy.info
W4DEX-14D220431712022-12-06 23:43:3935.9908-79.37511814612518Clb=4.6m/s Type=DFM17 ser=[BC]22043171 Details on http://radiosondy.info
W4DEX-14D220431712022-12-06 23:43:2935.9933-79.38111814612446Clb=5.1m/s Type=DFM17 ser=[BC]22043171 Details on http://radiosondy.info
W4DEX-14D220431712022-12-06 23:43:2635.9958-79.38711814412373Clb=4.0m/s Type=DFM17 ser=[BC]22043171 Details on http://radiosondy.info
W4DEX-14D220431712022-12-06 23:43:1335.9983-79.392911914312300Clb=4.4m/s Type=DFM17 ser=[BC]22043171 Details on http://radiosondy.info
W4DEX-14D220431712022-12-06 23:43:0136.0007-79.398711813912229Clb=6.0m/s Type=DFM17 ser=[BC]22043171 Details on http://radiosondy.info
W4DEX-14D220431712022-12-06 23:43:0036.003-79.404611614112157Clb=5.3m/s Type=DFM17 ser=[BC]22043171 Details on http://radiosondy.info
W4DEX-14D220431712022-12-06 23:42:5936.0052-79.410511614412085Clb=4.3m/s Type=DFM17 ser=[BC]22043171 Details on http://radiosondy.info
W4DEX-14D220431712022-12-06 23:42:5036.0075-79.416511614112012Clb=5.5m/s Type=DFM17 ser=[BC]22043171 Details on http://radiosondy.info
W4DEX-14D220431712022-12-06 23:42:2836.0096-79.422411413711940Clb=5.0m/s Type=DFM17 ser=[BC]22043171 Details on http://radiosondy.info
W4DEX-14D220431712022-12-06 23:42:0536.0116-79.428311213511868Clb=3.7m/s Type=DFM17 ser=[BC]22043171 Details on http://radiosondy.info
W4DEX-14D220431712022-12-06 23:41:4236.0134-79.434111413711796Clb=4.0m/s Type=DFM17 ser=[BC]22043171 Details on http://radiosondy.info
W4DEX-14D220431712022-12-06 23:41:1936.0152-79.439911313511726Clb=3.9m/s Type=DFM17 ser=[BC]22043171 Details on http://radiosondy.info
W4DEX-14D220431712022-12-06 23:40:5636.017-79.445811213511656Clb=5.7m/s Type=DFM17 ser=[BC]22043171 Details on http://radiosondy.info
W4DEX-14D220431712022-12-06 23:40:3336.0189-79.451611113511590Clb=3.5m/s Type=DFM17 ser=[BC]22043171 Details on http://radiosondy.info
W4DEX-14D220431712022-12-06 23:40:1236.0207-79.457411313711522Clb=4.8m/s Type=DFM17 ser=[BC]22043171 Details on http://radiosondy.info
W4DEX-14D220431712022-12-06 23:39:5436.0225-79.463211113511453Clb=3.5m/s Type=DFM17 ser=[BC]22043171 Details on http://radiosondy.info
W4DEX-14D220431712022-12-06 23:39:3936.0243-79.469111013311383Clb=4.0m/s Type=DFM17 ser=[BC]22043171 Details on http://radiosondy.info
W4DEX-14D220431712022-12-06 23:39:2436.0261-79.474811113311316Clb=4.7m/s Type=DFM17 ser=[BC]22043171 Details on http://radiosondy.info
W4DEX-14D220431712022-12-06 23:39:1036.0279-79.480511313111248Clb=3.7m/s Type=DFM17 ser=[BC]22043171 Details on http://radiosondy.info
W4DEX-14D220431712022-12-06 23:38:5436.0298-79.486111013011181Clb=4.2m/s Type=DFM17 ser=[BC]22043171 Details on http://radiosondy.info
W4DEX-14D220431712022-12-06 23:38:3936.0316-79.491710913011113Clb=3.7m/s Type=DFM17 ser=[BC]22043171 Details on http://radiosondy.info
W4DEX-14D220431712022-12-06 23:38:2436.0333-79.497410913111046Clb=3.0m/s Type=DFM17 ser=[BC]22043171 Details on http://radiosondy.info
W4DEX-14D220431712022-12-06 23:38:1536.0351-79.50310913510980Clb=3.9m/s Type=DFM17 ser=[BC]22043171 Details on http://radiosondy.info
W4DEX-14D220431712022-12-06 23:38:1436.037-79.508811413710913Clb=3.7m/s Type=DFM17 ser=[BC]22043171 Details on http://radiosondy.info
W4DEX-14D220431712022-12-06 23:38:1336.0389-79.514611513910846Clb=3.5m/s Type=DFM17 ser=[BC]22043171 Details on http://radiosondy.info
W4DEX-14D220431712022-12-06 23:38:0136.0409-79.520511413510780Clb=4.9m/s Type=DFM17 ser=[BC]22043171 Details on http://radiosondy.info
W4DEX-14D220431712022-12-06 23:37:4036.0429-79.526311413310710Clb=3.5m/s Type=DFM17 ser=[BC]22043171 Details on http://radiosondy.info
W4DEX-14D220431712022-12-06 23:37:1536.0449-79.531911413010644Clb=4.4m/s Type=DFM17 ser=[BC]22043171 Details on http://radiosondy.info
W4DEX-14D220431712022-12-06 23:36:5236.0469-79.537411913010580Clb=4.5m/s Type=DFM17 ser=[BC]22043171 Details on http://radiosondy.info
W4DEX-14D220431712022-12-06 23:36:3136.049-79.542811612010517Clb=3.4m/s Type=DFM17 ser=[BC]22043171 Details on http://radiosondy.info
W4DEX-14D220431712022-12-06 23:36:1136.0508-79.547911711710440Clb=3.8m/s Type=DFM17 ser=[BC]22043171 Details on http://radiosondy.info
W4DEX-14D220431712022-12-06 23:35:5436.0525-79.552811411310373Clb=3.3m/s Type=DFM17 ser=[BC]22043171 Details on http://radiosondy.info
W4DEX-14D220431712022-12-06 23:35:3936.0541-79.557611211310307Clb=4.4m/s Type=DFM17 ser=[BC]22043171 Details on http://radiosondy.info
W4DEX-14D220431712022-12-06 23:35:2436.0559-79.562411111310239Clb=2.7m/s Type=DFM17 ser=[BC]22043171 Details on http://radiosondy.info
W4DEX-14D220431712022-12-06 23:35:0936.0576-79.567111111310171Clb=3.7m/s Type=DFM17 ser=[BC]22043171 Details on http://radiosondy.info
W4DEX-14D220431712022-12-06 23:34:5436.0591-79.571911311110106Clb=4.1m/s Type=DFM17 ser=[BC]22043171 Details on http://radiosondy.info
W4DEX-14D220431712022-12-06 23:34:3936.0606-79.576711010610043Clb=3.8m/s Type=DFM17 ser=[BC]22043171 Details on http://radiosondy.info
W4DEX-14D220431712022-12-06 23:34:2436.0621-79.58121111009974Clb=5.1m/s Type=DFM17 ser=[BC]22043171 Details on http://radiosondy.info
W4DEX-14D220431712022-12-06 23:34:1136.0635-79.58551171029904Clb=5.1m/s Type=DFM17 ser=[BC]22043171 Details on http://radiosondy.info
W4DEX-14D220431712022-12-06 23:33:5436.065-79.58981131049838Clb=4.3m/s Type=DFM17 ser=[BC]22043171 Details on http://radiosondy.info
W4DEX-14D220431712022-12-06 23:33:4936.0664-79.59431101069774Clb=2.8m/s Type=DFM17 ser=[BC]22043171 Details on http://radiosondy.info
W4DEX-14D220431712022-12-06 23:33:4736.0678-79.59881141049713Clb=5.3m/s Type=DFM17 ser=[BC]22043171 Details on http://radiosondy.info
W4DEX-14D220431712022-12-06 23:33:3336.0693-79.60321121079649Clb=3.7m/s Type=DFM17 ser=[BC]22043171 Details on http://radiosondy.info
W4DEX-14D220431712022-12-06 23:33:1236.0708-79.60791111139588Clb=4.2m/s Type=DFM17 ser=[BC]22043171 Details on http://radiosondy.info
W4DEX-14D220431712022-12-06 23:32:5236.0722-79.61281111079529Clb=5.3m/s Type=DFM17 ser=[BC]22043171 Details on http://radiosondy.info
W4DEX-14D220431712022-12-06 23:32:3136.0735-79.61741101079466Clb=4.6m/s Type=DFM17 ser=[BC]22043171 Details on http://radiosondy.info
W4DEX-14D220431712022-12-06 23:32:0936.0747-79.62221111029402Clb=3.1m/s Type=DFM17 ser=[BC]22043171 Details on http://radiosondy.info
W4DEX-14D220431712022-12-06 23:31:5436.0759-79.62661101049341Clb=4.3m/s Type=DFM17 ser=[BC]22043171 Details on http://radiosondy.info
W4DEX-14D220431712022-12-06 23:31:3936.0771-79.63121081029276Clb=3.5m/s Type=DFM17 ser=[BC]22043171 Details on http://radiosondy.info
W4DEX-14D220431712022-12-06 23:31:2436.0783-79.63571081029208Clb=4.4m/s Type=DFM17 ser=[BC]22043171 Details on http://radiosondy.info
W4DEX-14D220431712022-12-06 23:31:0936.0796-79.64011081049144Clb=3.8m/s Type=DFM17 ser=[BC]22043171 Details on http://radiosondy.info
W4DEX-14D220431712022-12-06 23:30:5436.0809-79.64461071009082Clb=5.1m/s Type=DFM17 ser=[BC]22043171 Details on http://radiosondy.info
W4DEX-14D220431712022-12-06 23:30:3936.0821-79.6491101009020Clb=2.5m/s Type=DFM17 ser=[BC]22043171 Details on http://radiosondy.info
W4DEX-14D220431712022-12-06 23:30:2436.0835-79.65321111028957Clb=4.2m/s Type=DFM17 ser=[BC]22043171 Details on http://radiosondy.info
W4DEX-14D220431712022-12-06 23:30:0936.0848-79.6576110988890Clb=4.9m/s Type=DFM17 ser=[BC]22043171 Details on http://radiosondy.info
W4DEX-14D220431712022-12-06 23:29:5436.086-79.6618109968820Clb=4.3m/s Type=DFM17 ser=[BC]22043171 Details on http://radiosondy.info
W4DEX-14D220431712022-12-06 23:29:3936.0873-79.666111948751Clb=5.8m/s Type=DFM17 ser=[BC]22043171 Details on http://radiosondy.info
W4DEX-14D220431712022-12-06 23:29:2436.0886-79.67111918684Clb=5.2m/s Type=DFM17 ser=[BC]22043171 Details on http://radiosondy.info
W4DEX-14D220431712022-12-06 23:29:1936.09-79.6738116938614Clb=5.1m/s Type=DFM17 ser=[BC]22043171 Details on http://radiosondy.info
W4DEX-14D220431712022-12-06 23:29:0436.0912-79.6778108858544Clb=4.9m/s Type=DFM17 ser=[BC]22043171 Details on http://radiosondy.info
W4DEX-14D220431712022-12-06 23:28:4636.0924-79.6815112858453Clb=6.4m/s Type=DFM17 ser=[BC]22043171 Details on http://radiosondy.info
W4DEX-14D220431712022-12-06 23:28:2836.0937-79.6851113818380Clb=6.3m/s Type=DFM17 ser=[BC]22043171 Details on http://radiosondy.info
W4DEX-14D220431712022-12-06 23:28:0936.0949-79.6886110838298Clb=4.3m/s Type=DFM17 ser=[BC]22043171 Details on http://radiosondy.info
W4DEX-14D220431712022-12-06 23:27:5436.0961-79.6921114838231Clb=5.1m/s Type=DFM17 ser=[BC]22043171 Details on http://radiosondy.info
W4DEX-14D220431712022-12-06 23:27:3936.0973-79.6956112808162Clb=4.9m/s Type=DFM17 ser=[BC]22043171 Details on http://radiosondy.info
W4DEX-14D220431712022-12-06 23:27:2436.0982-79.6991123808086Clb=6.4m/s Type=DFM17 ser=[BC]22043171 Details on http://radiosondy.info
W4DEX-14D220431712022-12-06 23:27:1036.0996-79.7023113727997Clb=5.6m/s Type=DFM17 ser=[BC]22043171 Details on http://radiosondy.info
W4DEX-14D220431712022-12-06 23:26:5436.1007-79.7053116767926Clb=5.7m/s Type=DFM17 ser=[BC]22043171 Details on http://radiosondy.info
W4DEX-14D220431712022-12-06 23:26:3936.1019-79.7085115707846Clb=5.2m/s Type=DFM17 ser=[BC]22043171 Details on http://radiosondy.info
W4DEX-14D220431712022-12-06 23:26:2436.1031-79.7113117677769Clb=4.3m/s Type=DFM17 ser=[BC]22043171 Details on http://radiosondy.info
W4DEX-14D220431712022-12-06 23:26:0936.1042-79.7141118697702Clb=4.4m/s Type=DFM17 ser=[BC]22043171 Details on http://radiosondy.info
W4DEX-14D220431712022-12-06 23:25:5436.1056-79.7167126817602Clb=5.4m/s Type=DFM17 ser=[BC]22043171 Details on http://radiosondy.info
W4DEX-14D220431712022-12-06 23:25:3936.1069-79.7202116937513Clb=7.0m/s Type=DFM17 ser=[BC]22043171 Details on http://radiosondy.info
W4DEX-14D220431712022-12-06 23:25:2436.1082-79.7241117897413Clb=9.2m/s Type=DFM17 ser=[BC]22043171 Details on http://radiosondy.info
W4DEX-14D220431712022-12-06 23:25:1336.1095-79.7279120917327Clb=6.3m/s Type=DFM17 ser=[BC]22043171 Details on http://radiosondy.info
W4DEX-14D220431712022-12-06 23:25:0336.1109-79.7316116897234Clb=5.4m/s Type=DFM17 ser=[BC]22043171 Details on http://radiosondy.info
W4DEX-14D220431712022-12-06 23:24:4436.1123-79.7354116857142Clb=6.5m/s Type=DFM17 ser=[BC]22043171 Details on http://radiosondy.info
W4DEX-14D220431712022-12-06 23:24:2736.1135-79.7389126877045Clb=8.4m/s Type=DFM17 ser=[BC]22043171 Details on http://radiosondy.info
W4DEX-14D220431712022-12-06 23:24:0936.1149-79.7425124786933Clb=6.0m/s Type=DFM17 ser=[BC]22043171 Details on http://radiosondy.info
W4DEX-14D220431712022-12-06 23:23:5436.1164-79.7455111706826Clb=6.5m/s Type=DFM17 ser=[BC]22043171 Details on http://radiosondy.info
W4DEX-14D220431712022-12-06 23:23:3936.1175-79.7484106696720Clb=6.5m/s Type=DFM17 ser=[BC]22043171 Details on http://radiosondy.info
W4DEX-14D220431712022-12-06 23:23:2436.1184-79.7514116636630Clb=7.2m/s Type=DFM17 ser=[BC]22043171 Details on http://radiosondy.info
W4DEX-14D220431712022-12-06 23:23:0936.1192-79.7541109766539Clb=5.8m/s Type=DFM17 ser=[BC]22043171 Details on http://radiosondy.info
W4DEX-14D220431712022-12-06 23:22:5436.1201-79.7573102696458Clb=4.9m/s Type=DFM17 ser=[BC]22043171 Details on http://radiosondy.info
W4DEX-14D220431712022-12-06 23:22:3936.1209-79.7603111806372Clb=5.4m/s Type=DFM17 ser=[BC]22043171 Details on http://radiosondy.info
W4DEX-14D220431712022-12-06 23:22:2436.1219-79.7637119856271Clb=5.7m/s Type=DFM17 ser=[BC]22043171 Details on http://radiosondy.info
W4DEX-14D220431712022-12-06 23:22:0936.1226-79.767596896199Clb=5.1m/s Type=DFM17 ser=[BC]22043171 Details on http://radiosondy.info
W4DEX-14D220431712022-12-06 23:21:5436.1235-79.7714110836113Clb=8.1m/s Type=DFM17 ser=[BC]22043171 Details on http://radiosondy.info
W4DEX-14D220431712022-12-06 23:21:3936.1242-79.775195876017Clb=5.0m/s Type=DFM17 ser=[BC]22043171 Details on http://radiosondy.info
W4DEX-14D220431712022-12-06 23:21:2436.1249-79.779104895931Clb=6.4m/s Type=DFM17 ser=[BC]22043171 Details on http://radiosondy.info
W4DEX-14D220431712022-12-06 23:21:0936.1258-79.783114915849Clb=4.4m/s Type=DFM17 ser=[BC]22043171 Details on http://radiosondy.info
W4DEX-14D220431712022-12-06 23:20:5536.1265-79.787194835770Clb=6.7m/s Type=DFM17 ser=[BC]22043171 Details on http://radiosondy.info
W4DEX-14D220431712022-12-06 23:20:4036.1272-79.7908104805687Clb=6.2m/s Type=DFM17 ser=[BC]22043171 Details on http://radiosondy.info
W4DEX-14D220431712022-12-06 23:20:2536.1278-79.794496805595Clb=7.0m/s Type=DFM17 ser=[BC]22043171 Details on http://radiosondy.info
W4DEX-14D220431712022-12-06 23:20:0936.1284-79.798110785496Clb=7.7m/s Type=DFM17 ser=[BC]22043171 Details on http://radiosondy.info
W4DEX-14D220431712022-12-06 23:19:5436.1289-79.8015114835408Clb=7.4m/s Type=DFM17 ser=[BC]22043171 Details on http://radiosondy.info
W4DEX-14D220431712022-12-06 23:19:3936.1293-79.8052107745327Clb=4.7m/s Type=DFM17 ser=[BC]22043171 Details on http://radiosondy.info
W4DEX-14D220431712022-12-06 23:19:2436.1298-79.8085109745253Clb=4.8m/s Type=DFM17 ser=[BC]22043171 Details on http://radiosondy.info
W4DEX-14D220431712022-12-06 23:19:0936.1299-79.811984785172Clb=5.9m/s Type=DFM17 ser=[BC]22043171 Details on http://radiosondy.info
W4DEX-14D220431712022-12-06 23:18:5436.1301-79.8155108705084Clb=5.9m/s Type=DFM17 ser=[BC]22043171 Details on http://radiosondy.info
W4DEX-14D220431712022-12-06 23:18:3936.1302-79.818783784993Clb=4.9m/s Type=DFM17 ser=[BC]22043171 Details on http://radiosondy.info
W4DEX-14D220431712022-12-06 23:18:2436.1305-79.822384704898Clb=5.1m/s Type=DFM17 ser=[BC]22043171 Details on http://radiosondy.info
W4DEX-14D220431712022-12-06 23:18:0936.1309-79.8255104704808Clb=5.5m/s Type=DFM17 ser=[BC]22043171 Details on http://radiosondy.info
W4DEX-14D220431712022-12-06 23:17:5436.1312-79.8287100764727Clb=4.1m/s Type=DFM17 ser=[BC]22043171 Details on http://radiosondy.info
W4DEX-14D220431712022-12-06 23:17:3936.1315-79.832181744632Clb=6.5m/s Type=DFM17 ser=[BC]22043171 Details on http://radiosondy.info
W4DEX-14D220431712022-12-06 23:17:2436.1315-79.835595764543Clb=6.9m/s Type=DFM17 ser=[BC]22043171 Details on http://radiosondy.info
W4DEX-14D220431712022-12-06 23:17:0936.1314-79.839199614449Clb=5.0m/s Type=DFM17 ser=[BC]22043171 Details on http://radiosondy.info
W4DEX-14D220431712022-12-06 23:16:5436.1314-79.841895574365Clb=4.9m/s Type=DFM17 ser=[BC]22043171 Details on http://radiosondy.info
W4DEX-14D220431712022-12-06 23:16:3936.1313-79.8444100444286Clb=4.8m/s Type=DFM17 ser=[BC]22043171 Details on http://radiosondy.info
W4DEX-14D220431712022-12-06 23:16:2436.1311-79.846495524201Clb=6.1m/s Type=DFM17 ser=[BC]22043171 Details on http://radiosondy.info
W4DEX-14D220431712022-12-06 23:16:0936.1311-79.848894564117Clb=5.9m/s Type=DFM17 ser=[BC]22043171 Details on http://radiosondy.info
W4DEX-14D220431712022-12-06 23:15:5436.1312-79.8514101544029Clb=5.6m/s Type=DFM17 ser=[BC]22043171 Details on http://radiosondy.info
W4DEX-14D220431712022-12-06 23:15:3936.1312-79.853890563942Clb=4.9m/s Type=DFM17 ser=[BC]22043171 Details on http://radiosondy.info
W4DEX-14D220431712022-12-06 23:15:2436.1309-79.856298563864Clb=4.8m/s Type=DFM17 ser=[BC]22043171 Details on http://radiosondy.info
W4DEX-14D220431712022-12-06 23:15:0936.1306-79.858799523784Clb=5.3m/s Type=DFM17 ser=[BC]22043171 Details on http://radiosondy.info
W4DEX-14D220431712022-12-06 23:14:5436.1303-79.861166593701Clb=5.3m/s Type=DFM17 ser=[BC]22043171 Details on http://radiosondy.info
W4DEX-14D220431712022-12-06 23:14:3936.13-79.863788573613Clb=6.9m/s Type=DFM17 ser=[BC]22043171 Details on http://radiosondy.info
W4DEX-14D220431712022-12-06 23:14:2436.1295-79.866267503524Clb=7.3m/s Type=DFM17 ser=[BC]22043171 Details on http://radiosondy.info
W4DEX-14D220431712022-12-06 23:14:0936.1291-79.868592563440Clb=6.5m/s Type=DFM17 ser=[BC]22043171 Details on http://radiosondy.info
W4DEX-14D220431712022-12-06 23:13:5436.1288-79.87189563351Clb=4.9m/s Type=DFM17 ser=[BC]22043171 Details on http://radiosondy.info
W4DEX-14D220431712022-12-06 23:13:3936.1284-79.873487573270Clb=6.0m/s Type=DFM17 ser=[BC]22043171 Details on http://radiosondy.info
W4DEX-14D220431712022-12-06 23:13:2436.1278-79.87664523171Clb=5.8m/s Type=DFM17 ser=[BC]22043171 Details on http://radiosondy.info
W4DEX-14D220431712022-12-06 23:13:0936.1273-79.878295463078Clb=6.6m/s Type=DFM17 ser=[BC]22043171 Details on http://radiosondy.info
W4DEX-14D220431712022-12-06 23:12:5436.127-79.880360482984Clb=5.6m/s Type=DFM17 ser=[BC]22043171 Details on http://radiosondy.info
W4DEX-14D220431712022-12-06 23:12:3936.1264-79.882460462906Clb=5.3m/s Type=DFM17 ser=[BC]22043171 Details on http://radiosondy.info
W4DEX-14D220431712022-12-06 23:12:2436.126-79.884491462820Clb=4.6m/s Type=DFM17 ser=[BC]22043171 Details on http://radiosondy.info
W4DEX-14D220431712022-12-06 23:12:0936.1256-79.886563462734Clb=7.2m/s Type=DFM17 ser=[BC]22043171 Details on http://radiosondy.info
W4DEX-14D220431712022-12-06 23:11:5436.1249-79.888452522644Clb=5.2m/s Type=DFM17 ser=[BC]22043171 Details on http://radiosondy.info
W4DEX-14D220431712022-12-06 23:11:3936.1242-79.890656562559Clb=4.6m/s Type=DFM17 ser=[BC]22043171 Details on http://radiosondy.info
W4DEX-14D220431712022-12-06 23:11:2436.1235-79.89382542475Clb=6.2m/s Type=DFM17 ser=[BC]22043171 Details on http://radiosondy.info
W4DEX-14D220431712022-12-06 23:11:0936.1229-79.895482562387Clb=4.4m/s Type=DFM17 ser=[BC]22043171 Details on http://radiosondy.info
W4DEX-14D220431712022-12-06 23:10:5436.1221-79.897879672312Clb=7.0m/s Type=DFM17 ser=[BC]22043171 Details on http://radiosondy.info
W4DEX-14D220431712022-12-06 23:10:3936.1216-79.900885612232Clb=5.3m/s Type=DFM17 ser=[BC]22043171 Details on http://radiosondy.info
W4DEX-14D220431712022-12-06 23:10:2436.1211-79.903577612149Clb=5.7m/s Type=DFM17 ser=[BC]22043171 Details on http://radiosondy.info
W4DEX-14D220431712022-12-06 23:10:0936.1206-79.906272632073Clb=6.0m/s Type=DFM17 ser=[BC]22043171 Details on http://radiosondy.info
W4DEX-14D220431712022-12-06 23:09:5436.1201-79.909175651998Clb=5.8m/s Type=DFM17 ser=[BC]22043171 Details on http://radiosondy.info
W4DEX-14D220431712022-12-06 23:09:3936.1196-79.91265591913Clb=3.7m/s Type=DFM17 ser=[BC]22043171 Details on http://radiosondy.info
W4DEX-14D220431712022-12-06 23:09:2436.1189-79.914676611832Clb=6.6m/s Type=DFM17 ser=[BC]22043171 Details on http://radiosondy.info
W4DEX-14D220431712022-12-06 23:09:0936.1182-79.917380571744Clb=5.7m/s Type=DFM17 ser=[BC]22043171 Details on http://radiosondy.info
W4DEX-14D220431712022-12-06 23:08:5436.1175-79.919856571660Clb=5.0m/s Type=DFM17 ser=[BC]22043171 Details on http://radiosondy.info
W4DEX-14D220431712022-12-06 23:08:3936.1165-79.922265611582Clb=4.2m/s Type=DFM17 ser=[BC]22043171 Details on http://radiosondy.info
W4DEX-14D220431712022-12-06 23:08:2436.1154-79.924646541497Clb=7.4m/s Type=DFM17 ser=[BC]22043171 Details on http://radiosondy.info
W4DEX-14D220431712022-12-06 23:08:0936.1142-79.926551481404Clb=5.1m/s Type=DFM17 ser=[BC]22043171 Details on http://radiosondy.info
W4DEX-14D220431712022-12-06 23:07:5436.113-79.928147501323Clb=6.5m/s Type=DFM17 ser=[BC]22043171 Details on http://radiosondy.info
W4DEX-14D220431712022-12-06 23:07:3936.1118-79.929740521236Clb=5.7m/s Type=DFM17 ser=[BC]22043171 Details on http://radiosondy.info
W4DEX-14D220431712022-12-06 23:07:2436.1105-79.931566561157Clb=5.7m/s Type=DFM17 ser=[BC]22043171 Details on http://radiosondy.info
W4DEX-14D220431712022-12-06 23:07:0936.1093-79.933546561068Clb=4.8m/s Type=DFM17 ser=[BC]22043171 Details on http://radiosondy.info
W4DEX-14D220431712022-12-06 23:06:5436.1079-79.93556043986Clb=6.4m/s Type=DFM17 ser=[BC]22043171 Details on http://radiosondy.info
W4DEX-14D220431712022-12-06 23:06:3936.1068-79.93682941911Clb=4.9m/s Type=DFM17 ser=[BC]22043171 Details on http://radiosondy.info
W4DEX-14D220431712022-12-06 23:06:2436.1056-79.93781941834Clb=4.9m/s Type=DFM Details on http://radiosondy.info
W4DEX-14D220431712022-12-06 23:06:0936.1043-79.93893043742Clb=6.6m/s Type=DFM Details on http://radiosondy.info
W4DEX-14D220431712022-12-06 23:05:5436.1028-79.93974846656Clb=5.6m/s Type=DFM Details on http://radiosondy.info